createdAt,value
2023-05-21T00:01:19.752Z,5.60
2023-05-21T00:06:28.226Z,5.30
2023-05-21T00:11:37.009Z,4.80
2023-05-21T00:16:45.546Z,5.50
2023-05-21T00:21:53.194Z,5.70
2023-05-21T00:27:01.039Z,5.20
2023-05-21T00:32:10.003Z,5.10
2023-05-21T00:37:19.457Z,5.90
2023-05-21T00:42:27.804Z,5.20
2023-05-21T00:47:36.603Z,5.40
2023-05-21T00:52:46.394Z,5.40
2023-05-21T00:57:56.235Z,5.00
2023-05-21T01:03:05.277Z,5.40
2023-05-21T01:08:13.503Z,5.50
2023-05-21T01:13:22.982Z,4.80
2023-05-21T01:18:35.767Z,5.20
2023-05-21T01:23:43.297Z,5.00
2023-05-21T01:28:50.745Z,5.20
2023-05-21T01:34:03.721Z,4.60
2023-05-21T01:39:18.533Z,5.00
2023-05-21T01:44:29.455Z,4.60
2023-05-21T01:49:37.392Z,5.00
2023-05-21T01:54:44.873Z,4.90
2023-05-21T01:59:53.839Z,5.10
2023-05-21T02:05:02.068Z,4.80
2023-05-21T02:10:11.301Z,5.00
2023-05-21T02:15:19.671Z,4.50
2023-05-21T02:20:27.148Z,5.20
2023-05-21T02:25:35.298Z,4.70
2023-05-21T02:30:42.933Z,4.50
2023-05-21T02:35:50.947Z,4.70
2023-05-21T02:40:58.548Z,4.70
2023-05-21T02:46:07.034Z,3.90
2023-05-21T02:51:16.635Z,3.60
2023-05-21T02:56:24.309Z,3.60
2023-05-21T03:01:31.828Z,3.80
2023-05-21T03:06:39.424Z,3.20
2023-05-21T03:11:47.180Z,2.90
2023-05-21T03:16:54.831Z,3.20
2023-05-21T03:22:02.766Z,3.20
2023-05-21T03:27:10.629Z,3.20
2023-05-21T03:32:18.624Z,3.10
2023-05-21T03:37:27.065Z,3.00
2023-05-21T03:42:34.565Z,3.00
2023-05-21T03:47:43.407Z,3.30
2023-05-21T03:52:51.157Z,3.00
2023-05-21T03:57:58.958Z,3.50
2023-05-21T04:03:07.679Z,3.30
2023-05-21T04:08:15.302Z,3.10
2023-05-21T04:13:22.716Z,3.40
2023-05-21T04:18:30.644Z,3.30
2023-05-21T04:23:39.113Z,3.40
2023-05-21T04:28:51.587Z,3.20
2023-05-21T04:33:59.913Z,3.30
2023-05-21T04:39:07.798Z,3.40
2023-05-21T04:44:15.939Z,2.90
2023-05-21T04:49:24.788Z,3.20
2023-05-21T04:54:32.784Z,3.10
2023-05-21T04:59:41.954Z,3.10
2023-05-21T05:04:50.073Z,2.60
2023-05-21T05:09:58.375Z,3.00
2023-05-21T05:15:06.869Z,2.60
2023-05-21T05:20:15.463Z,2.70
2023-05-21T05:25:24.192Z,2.80
2023-05-21T05:30:33.135Z,2.70
2023-05-21T05:35:53.085Z,2.70
2023-05-21T05:41:02.090Z,2.50
2023-05-21T05:46:10.308Z,2.70
2023-05-21T05:51:18.059Z,2.40
2023-05-21T05:56:27.439Z,2.60
2023-05-21T06:01:35.988Z,3.10
2023-05-21T06:06:43.935Z,2.20
2023-05-21T06:11:51.430Z,2.40
2023-05-21T06:16:59.296Z,2.30
2023-05-21T06:22:07.899Z,2.40
2023-05-21T06:27:15.981Z,2.50
2023-05-21T06:32:24.018Z,2.10
2023-05-21T06:37:32.758Z,2.10
2023-05-21T06:42:40.908Z,2.20
2023-05-21T06:48:27.695Z,2.10
2023-05-21T06:53:36.108Z,2.40
2023-05-21T06:58:44.321Z,1.90
2023-05-21T07:03:52.784Z,2.30
2023-05-21T07:09:01.986Z,2.00
2023-05-21T07:14:10.890Z,2.00
2023-05-21T07:19:19.014Z,2.10
2023-05-21T07:24:28.034Z,1.80
2023-05-21T07:29:35.949Z,1.60
2023-05-21T07:34:43.624Z,1.80
2023-05-21T07:39:51.584Z,1.60
2023-05-21T07:45:01.190Z,2.00
2023-05-21T07:50:12.590Z,1.70
2023-05-21T07:55:21.224Z,2.00
2023-05-21T08:00:29.000Z,1.70
2023-05-21T08:05:37.808Z,1.70
2023-05-21T08:10:45.868Z,1.70
2023-05-21T08:15:54.825Z,1.40
2023-05-21T08:21:03.238Z,1.40
2023-05-21T08:26:12.368Z,1.50
2023-05-21T08:31:21.955Z,1.50
2023-05-21T08:36:32.784Z,1.60
2023-05-21T08:41:50.158Z,1.40
2023-05-21T08:46:59.852Z,1.40
2023-05-21T08:52:10.560Z,1.60
2023-05-21T08:57:21.278Z,1.30
2023-05-21T09:02:31.064Z,1.50
2023-05-21T09:07:46.355Z,1.60
2023-05-21T09:13:18.046Z,1.60
2023-05-21T09:18:28.124Z,1.50
2023-05-21T09:23:46.605Z,1.60
2023-05-21T09:28:58.598Z,1.60
2023-05-21T09:34:08.002Z,1.60
2023-05-21T09:39:29.637Z,1.40
2023-05-21T09:44:38.534Z,1.50
2023-05-21T09:49:47.867Z,1.40
2023-05-21T09:54:55.716Z,1.50
2023-05-21T10:00:07.054Z,1.60
2023-05-21T10:05:22.071Z,1.60
2023-05-21T10:10:32.997Z,1.30
2023-05-21T10:15:44.545Z,1.60
2023-05-21T10:20:53.306Z,1.40
2023-05-21T10:26:02.227Z,1.60
2023-05-21T10:31:11.198Z,1.20
2023-05-21T10:36:20.190Z,1.30
2023-05-21T10:41:32.845Z,1.20
2023-05-21T10:47:22.956Z,1.50
2023-05-21T10:52:46.628Z,1.20
2023-05-21T10:58:19.851Z,1.20
2023-05-21T11:03:30.240Z,1.10
2023-05-21T11:08:39.277Z,1.30
2023-05-21T11:13:53.663Z,1.30
2023-05-21T11:19:07.284Z,1.50
2023-05-21T11:24:23.086Z,1.50
2023-05-21T11:29:41.034Z,1.40
2023-05-21T11:34:50.350Z,1.50
2023-05-21T11:39:58.442Z,1.20
2023-05-21T11:45:07.707Z,1.60
2023-05-21T11:50:18.389Z,1.40
2023-05-21T11:55:29.886Z,1.30
2023-05-21T12:00:42.919Z,1.60
2023-05-21T12:05:52.990Z,1.50
2023-05-21T12:11:04.190Z,1.50
2023-05-21T12:16:12.797Z,1.50
2023-05-21T12:21:21.371Z,1.60
2023-05-21T12:26:30.681Z,1.70
2023-05-21T12:31:51.444Z,1.60
2023-05-21T12:36:59.177Z,1.70
2023-05-21T12:42:08.928Z,1.60
2023-05-21T12:47:18.463Z,1.70
2023-05-21T12:52:27.737Z,1.70
2023-05-21T12:57:40.137Z,1.80
2023-05-21T13:02:48.307Z,1.40
2023-05-21T13:07:56.206Z,1.60
2023-05-21T13:13:04.008Z,1.60
2023-05-21T13:18:13.058Z,1.40
2023-05-21T13:23:21.114Z,1.50
2023-05-21T13:28:29.848Z,1.50
2023-05-21T13:33:38.074Z,1.90
2023-05-21T13:38:45.895Z,1.50
2023-05-21T13:43:54.201Z,1.40
2023-05-21T13:49:03.965Z,2.00
2023-05-21T13:54:12.132Z,1.50
2023-05-21T13:59:19.662Z,1.60
2023-05-21T14:04:27.325Z,1.20
2023-05-21T14:09:36.008Z,1.70
2023-05-21T14:14:44.623Z,1.70
2023-05-21T14:19:52.235Z,1.50
2023-05-21T14:24:59.956Z,1.40
2023-05-21T14:30:08.466Z,1.40
2023-05-21T14:35:16.007Z,1.40
2023-05-21T14:40:23.549Z,1.70
2023-05-21T14:45:33.767Z,1.50
2023-05-21T14:50:42.174Z,1.50
2023-05-21T14:55:50.119Z,1.70
2023-05-21T15:00:58.641Z,1.80
2023-05-21T15:06:09.478Z,1.40
2023-05-21T15:11:17.723Z,1.20
2023-05-21T15:16:25.890Z,1.60
2023-05-21T15:21:33.631Z,1.40
2023-05-21T15:26:41.541Z,1.30
2023-05-21T15:31:49.475Z,1.60
2023-05-21T15:36:58.613Z,1.60
2023-05-21T15:42:07.433Z,1.40
2023-05-21T15:47:16.343Z,1.50
2023-05-21T15:52:23.705Z,1.60
2023-05-21T15:57:31.700Z,1.50
2023-05-21T16:02:41.304Z,1.70
2023-05-21T16:07:48.933Z,1.60
2023-05-21T16:12:56.976Z,1.80
2023-05-21T16:18:04.937Z,1.50
2023-05-21T16:23:13.471Z,1.70
2023-05-21T16:28:21.884Z,1.70
2023-05-21T16:33:29.623Z,1.40
2023-05-21T16:38:37.257Z,1.70
2023-05-21T16:43:45.165Z,1.40
2023-05-21T16:48:53.042Z,1.60
2023-05-21T16:54:03.633Z,1.60
2023-05-21T17:00:45.786Z,1.60
2023-05-21T17:06:23.545Z,1.30
2023-05-21T17:11:31.509Z,2.00
2023-05-21T17:16:43.948Z,1.90
2023-05-21T17:21:52.374Z,1.60
2023-05-21T17:27:00.574Z,1.90
2023-05-21T17:32:09.659Z,1.90
2023-05-21T17:37:18.470Z,2.10
2023-05-21T17:42:26.815Z,2.60
2023-05-21T17:47:35.044Z,2.10
2023-05-21T17:52:43.472Z,2.60
2023-05-21T17:57:52.130Z,4.30
2023-05-21T18:03:00.454Z,4.80
2023-05-21T18:08:10.650Z,5.70
2023-05-21T18:13:18.397Z,6.50
2023-05-21T18:18:27.356Z,6.10
2023-05-21T18:23:35.462Z,5.60
2023-05-21T18:28:43.885Z,5.40
2023-05-21T18:33:52.434Z,5.70
2023-05-21T18:39:01.627Z,5.40
2023-05-21T18:44:09.419Z,5.30
2023-05-21T18:49:17.819Z,5.30
2023-05-21T18:54:26.112Z,4.70
2023-05-21T18:59:34.943Z,4.90
2023-05-21T19:04:43.168Z,4.90
2023-05-21T19:09:51.036Z,5.30
2023-05-21T19:14:58.866Z,4.90
2023-05-21T19:20:09.183Z,3.70
2023-05-21T19:25:16.779Z,3.20
2023-05-21T19:30:25.327Z,3.10
2023-05-21T19:35:33.397Z,3.30
2023-05-21T19:40:42.301Z,3.20
2023-05-21T19:45:50.035Z,3.30
2023-05-21T19:50:58.484Z,3.50
2023-05-21T19:56:06.380Z,3.30
2023-05-21T20:01:14.875Z,3.00
2023-05-21T20:06:23.139Z,3.30
2023-05-21T20:11:31.346Z,3.50
2023-05-21T20:16:39.410Z,3.40
2023-05-21T20:21:47.448Z,3.30
2023-05-21T20:26:55.282Z,3.50
2023-05-21T20:32:02.973Z,3.90
2023-05-21T20:37:10.913Z,3.70
2023-05-21T20:42:20.381Z,3.80
2023-05-21T20:47:30.528Z,4.30
2023-05-21T20:52:38.669Z,7.00
2023-05-21T20:57:47.743Z,8.50
2023-05-21T21:02:56.425Z,8.70
2023-05-21T21:08:06.541Z,8.40
2023-05-21T21:13:14.688Z,8.20
2023-05-21T21:18:22.813Z,7.20
2023-05-21T21:23:31.978Z,6.50
2023-05-21T21:28:40.264Z,6.10
2023-05-21T21:33:48.516Z,5.50
2023-05-21T21:38:56.329Z,4.70
2023-05-21T21:44:04.772Z,6.00
2023-05-21T21:49:14.837Z,7.40
2023-05-21T21:54:23.095Z,6.40
2023-05-21T21:59:31.076Z,6.50
2023-05-21T22:04:39.247Z,6.10
2023-05-21T22:09:47.260Z,8.00
2023-05-21T22:14:56.283Z,7.50
2023-05-21T22:20:06.363Z,6.40
2023-05-21T22:25:15.427Z,6.60
2023-05-21T22:30:24.336Z,6.60
2023-05-21T22:35:32.456Z,7.50
2023-05-21T22:40:40.447Z,7.60
2023-05-21T22:45:48.385Z,7.50
2023-05-21T22:50:58.508Z,8.20
2023-05-21T22:56:07.451Z,7.50
2023-05-21T23:01:15.628Z,6.60
2023-05-21T23:06:23.214Z,5.70
2023-05-21T23:11:31.953Z,5.40
2023-05-21T23:16:44.412Z,5.80
2023-05-21T23:21:53.450Z,4.80
2023-05-21T23:27:03.437Z,5.40
2023-05-21T23:32:12.357Z,6.00
2023-05-21T23:37:19.884Z,5.60
2023-05-21T23:42:27.728Z,5.40
2023-05-21T23:47:35.244Z,4.80
2023-05-21T23:52:43.596Z,5.30
2023-05-21T23:57:51.915Z,5.20
